createdAt,value
2024-05-09T00:01:47.628Z,9.75
2024-05-09T00:04:19.957Z,9.84
2024-05-09T00:06:49.455Z,9.76
2024-05-09T00:09:18.901Z,9.83
2024-05-09T00:11:48.432Z,9.89
2024-05-09T00:14:17.975Z,9.85
2024-05-09T00:16:48.389Z,9.86
2024-05-09T00:19:20.768Z,9.85
2024-05-09T00:21:51.964Z,9.88
2024-05-09T00:24:21.389Z,9.88
2024-05-09T00:26:50.940Z,9.91
2024-05-09T00:29:20.632Z,9.65
2024-05-09T00:31:50.251Z,9.82
2024-05-09T00:34:22.466Z,9.63
2024-05-09T00:36:52.160Z,9.73
2024-05-09T00:39:21.688Z,9.83
2024-05-09T00:41:51.135Z,9.62
2024-05-09T00:44:20.615Z,9.77
2024-05-09T00:46:54.524Z,9.68
2024-05-09T00:49:28.453Z,9.60
2024-05-09T00:52:00.209Z,9.70
2024-05-09T00:54:30.087Z,9.56
2024-05-09T00:56:59.899Z,9.47
2024-05-09T00:59:31.177Z,9.52
2024-05-09T01:02:02.429Z,9.40
2024-05-09T01:04:34.773Z,9.06
2024-05-09T01:07:04.291Z,9.13
2024-05-09T01:09:33.794Z,9.22
2024-05-09T01:12:03.421Z,9.28
2024-05-09T01:14:33.045Z,9.10
2024-05-09T01:17:02.549Z,9.10
2024-05-09T01:19:34.712Z,9.13
2024-05-09T01:22:04.553Z,9.05
2024-05-09T01:24:36.709Z,9.00
2024-05-09T01:27:06.582Z,8.97
2024-05-09T01:29:36.137Z,8.96
2024-05-09T01:32:05.843Z,9.03
2024-05-09T01:34:35.371Z,8.92
2024-05-09T01:37:04.819Z,8.91
2024-05-09T01:39:37.013Z,8.85
2024-05-09T01:42:06.960Z,8.83
2024-05-09T01:44:36.409Z,8.87
2024-05-09T01:47:06.115Z,8.54
2024-05-09T01:49:40.617Z,8.53
2024-05-09T01:52:10.134Z,8.55
2024-05-09T01:54:42.177Z,8.50
2024-05-09T01:57:11.633Z,8.15
2024-05-09T01:59:41.112Z,8.33
2024-05-09T02:02:10.813Z,8.41
2024-05-09T02:04:40.610Z,8.35
2024-05-09T02:07:10.723Z,8.34
2024-05-09T02:09:43.214Z,8.28
2024-05-09T02:12:16.473Z,7.93
2024-05-09T02:14:46.089Z,7.93
2024-05-09T02:17:15.664Z,8.12
2024-05-09T02:19:45.161Z,7.88
2024-05-09T02:22:14.619Z,7.98
2024-05-09T02:24:46.658Z,8.04
2024-05-09T02:27:16.153Z,8.21
2024-05-09T02:29:47.449Z,8.11
2024-05-09T02:32:17.033Z,8.18
2024-05-09T02:34:46.543Z,8.11
2024-05-09T02:37:13.473Z,8.10
2024-05-09T02:39:42.900Z,7.99
2024-05-09T02:42:12.343Z,7.93
2024-05-09T02:44:41.770Z,7.96
2024-05-09T02:47:08.869Z,7.85
2024-05-09T02:49:38.429Z,7.89
2024-05-09T02:52:05.699Z,7.73
2024-05-09T02:54:35.201Z,7.80
2024-05-09T02:57:02.197Z,7.72
2024-05-09T02:59:34.253Z,7.92
2024-05-09T03:02:01.251Z,7.78
2024-05-09T03:04:30.981Z,7.83
2024-05-09T03:06:58.114Z,7.77
2024-05-09T03:09:28.008Z,7.60
2024-05-09T03:11:57.837Z,7.48
2024-05-09T03:14:24.823Z,7.57
2024-05-09T03:16:56.996Z,7.42
2024-05-09T03:19:23.988Z,7.37
2024-05-09T03:21:53.450Z,7.24
2024-05-09T03:24:20.357Z,7.40
2024-05-09T03:26:49.780Z,7.36
2024-05-09T03:29:16.700Z,7.37
2024-05-09T03:31:46.268Z,7.31
2024-05-09T03:34:15.758Z,7.23
2024-05-09T03:36:45.606Z,7.15
2024-05-09T03:39:15.053Z,7.29
2024-05-09T03:41:44.668Z,7.22
2024-05-09T03:44:14.296Z,7.18
2024-05-09T03:46:41.536Z,7.12
2024-05-09T03:49:11.421Z,7.12
2024-05-09T03:51:40.954Z,6.96
2024-05-09T03:54:10.648Z,7.07
2024-05-09T03:56:38.059Z,7.18
2024-05-09T03:59:07.620Z,7.24
2024-05-09T04:01:34.683Z,7.23
2024-05-09T04:04:04.308Z,7.31
2024-05-09T04:06:31.145Z,7.11
2024-05-09T04:09:03.749Z,7.08
2024-05-09T04:11:30.688Z,7.14
2024-05-09T04:14:00.244Z,7.09
2024-05-09T04:16:27.083Z,7.05
2024-05-09T04:18:56.741Z,7.13
2024-05-09T04:21:23.620Z,7.15
2024-05-09T04:23:53.059Z,7.20
2024-05-09T04:26:22.627Z,7.10
2024-05-09T04:28:52.127Z,7.16
2024-05-09T04:31:20.824Z,7.19
2024-05-09T04:33:50.371Z,7.17
2024-05-09T04:36:17.304Z,7.20
2024-05-09T04:38:46.769Z,7.22
2024-05-09T04:41:14.269Z,7.21
2024-05-09T04:43:46.363Z,7.27
2024-05-09T04:46:14.647Z,7.28
2024-05-09T04:48:44.249Z,7.26
2024-05-09T04:51:11.205Z,7.30
2024-05-09T04:53:40.842Z,7.22
2024-05-09T04:56:08.756Z,7.50
2024-05-09T04:58:39.984Z,7.54
2024-05-09T05:01:09.471Z,7.47
2024-05-09T05:03:39.281Z,7.43
2024-05-09T05:06:06.338Z,7.51
2024-05-09T05:08:36.954Z,7.67
2024-05-09T05:11:04.209Z,7.78
2024-05-09T05:13:33.981Z,7.76
2024-05-09T05:16:00.837Z,7.92
2024-05-09T05:18:33.470Z,8.03
2024-05-09T05:21:00.381Z,8.16
2024-05-09T05:23:29.999Z,8.17
2024-05-09T05:25:57.160Z,8.18
2024-05-09T05:28:26.759Z,8.24
2024-05-09T05:30:53.666Z,8.49
2024-05-09T05:33:23.735Z,8.40
2024-05-09T05:35:53.285Z,8.42
2024-05-09T05:38:26.109Z,8.37
2024-05-09T05:40:55.181Z,8.55
2024-05-09T05:43:24.674Z,8.50
2024-05-09T05:45:51.539Z,8.50
2024-05-09T05:48:21.354Z,8.73
2024-05-09T05:50:48.440Z,8.77
2024-05-09T05:53:20.612Z,8.96
2024-05-09T05:55:47.541Z,8.98
2024-05-09T05:58:17.134Z,9.04
2024-05-09T06:00:44.443Z,9.18
2024-05-09T06:03:14.824Z,9.17
2024-05-09T06:05:43.982Z,9.22
2024-05-09T06:08:14.172Z,9.34
2024-05-09T06:10:43.963Z,9.36
2024-05-09T06:13:15.515Z,9.51
2024-05-09T06:15:43.453Z,9.62
2024-05-09T06:18:13.732Z,9.74
2024-05-09T06:20:43.036Z,9.90
2024-05-09T06:23:13.639Z,10.00
2024-05-09T06:25:43.993Z,10.21
2024-05-09T06:28:13.597Z,10.45
2024-05-09T06:30:42.469Z,10.63
2024-05-09T06:33:15.824Z,10.84
2024-05-09T06:35:44.087Z,10.81
2024-05-09T06:38:13.732Z,10.92
2024-05-09T06:40:44.297Z,11.01
2024-05-09T06:43:16.694Z,11.08
2024-05-09T06:45:46.775Z,11.25
2024-05-09T06:48:16.870Z,11.17
2024-05-09T06:50:44.068Z,11.47
2024-05-09T06:53:16.064Z,11.58
2024-05-09T06:55:45.786Z,11.70
2024-05-09T06:58:15.466Z,11.83
2024-05-09T07:00:42.669Z,11.86
2024-05-09T07:03:14.777Z,12.11
2024-05-09T07:05:44.350Z,12.20
2024-05-09T07:08:14.194Z,12.17
2024-05-09T07:10:41.395Z,12.39
2024-05-09T07:13:15.452Z,12.54
2024-05-09T07:15:42.630Z,12.48
2024-05-09T07:18:14.064Z,12.79
2024-05-09T07:20:41.746Z,12.82
2024-05-09T07:23:12.169Z,12.99
2024-05-09T07:25:40.166Z,13.15
2024-05-09T07:28:16.877Z,13.23
2024-05-09T07:30:43.981Z,13.04
2024-05-09T07:33:19.373Z,13.11
2024-05-09T07:35:47.143Z,13.34
2024-05-09T07:38:16.838Z,13.54
2024-05-09T07:40:46.492Z,13.63
2024-05-09T07:43:16.509Z,13.67
2024-05-09T07:45:53.574Z,13.66
2024-05-09T07:52:38.740Z,13.83
2024-05-09T07:53:46.209Z,14.03
2024-05-09T07:56:21.642Z,13.86
2024-05-09T07:58:53.161Z,14.02
2024-05-09T08:01:24.634Z,14.31
2024-05-09T08:03:54.536Z,14.24
2024-05-09T08:06:21.814Z,14.33
2024-05-09T08:08:51.330Z,14.36
2024-05-09T08:11:19.594Z,14.57
2024-05-09T08:13:49.486Z,14.49
2024-05-09T08:16:19.279Z,14.50
2024-05-09T08:18:49.069Z,14.59
2024-05-09T08:21:15.973Z,14.60
2024-05-09T08:23:45.403Z,14.71
2024-05-09T08:26:12.502Z,14.82
2024-05-09T08:28:42.006Z,14.84
2024-05-09T08:31:10.340Z,14.90
2024-05-09T08:33:46.541Z,15.05
2024-05-09T08:36:14.740Z,15.02
2024-05-09T08:38:44.195Z,15.21
2024-05-09T08:41:14.173Z,15.34
2024-05-09T08:43:44.046Z,15.38
2024-05-09T08:46:13.092Z,15.42
2024-05-09T08:48:46.605Z,15.35
2024-05-09T08:51:14.243Z,15.50
2024-05-09T08:53:43.811Z,15.59
2024-05-09T08:56:11.845Z,15.82
2024-05-09T08:58:41.775Z,15.79
2024-05-09T09:01:10.222Z,15.83
2024-05-09T09:03:40.858Z,16.12
2024-05-09T09:06:14.484Z,16.36
2024-05-09T09:08:44.132Z,16.49
2024-05-09T09:11:11.217Z,16.42
2024-05-09T09:13:41.067Z,16.55
2024-05-09T09:16:08.321Z,16.46
2024-05-09T09:18:38.015Z,16.76
2024-05-09T09:21:09.821Z,16.82
2024-05-09T09:23:42.177Z,16.72
2024-05-09T09:26:09.104Z,16.80
2024-05-09T09:28:40.615Z,17.02
2024-05-09T09:31:07.521Z,17.08
2024-05-09T09:33:37.794Z,17.18
2024-05-09T09:36:07.518Z,17.34
2024-05-09T09:38:42.391Z,17.51
2024-05-09T09:41:10.835Z,17.59
2024-05-09T09:43:41.702Z,18.08
2024-05-09T09:46:12.435Z,17.98
2024-05-09T09:48:42.809Z,17.77
2024-05-09T09:51:10.060Z,17.81
2024-05-09T09:53:42.495Z,18.15
2024-05-09T09:56:10.503Z,18.07
2024-05-09T09:58:41.422Z,18.32
2024-05-09T10:01:08.482Z,18.47
2024-05-09T10:03:38.588Z,18.58
2024-05-09T10:06:07.688Z,18.30
2024-05-09T10:08:38.747Z,17.61
2024-05-09T10:11:08.448Z,17.08
2024-05-09T10:13:38.970Z,17.35
2024-05-09T10:16:10.917Z,17.97
2024-05-09T10:18:42.223Z,17.71
2024-05-09T10:21:15.624Z,18.60
2024-05-09T10:23:47.261Z,19.15
2024-05-09T10:26:16.718Z,19.75
2024-05-09T10:28:46.823Z,20.06
2024-05-09T10:31:16.370Z,19.63
2024-05-09T10:33:51.921Z,19.56
2024-05-09T10:36:20.867Z,19.61
2024-05-09T10:38:51.444Z,20.62
2024-05-09T10:41:22.684Z,20.59
2024-05-09T10:43:53.147Z,21.08
2024-05-09T10:46:20.439Z,21.20
2024-05-09T10:48:52.406Z,22.54
2024-05-09T10:51:19.497Z,22.39
2024-05-09T10:53:52.394Z,23.41
2024-05-09T10:56:21.986Z,23.18
2024-05-09T10:58:54.711Z,23.03
2024-05-09T11:01:21.985Z,22.85
2024-05-09T11:03:52.583Z,23.52
2024-05-09T11:06:19.513Z,24.56
2024-05-09T11:08:49.788Z,24.75
2024-05-09T11:11:17.168Z,25.00
2024-05-09T11:13:49.285Z,24.94
2024-05-09T11:16:19.401Z,23.96
2024-05-09T11:18:56.435Z,24.77
2024-05-09T11:21:24.369Z,25.22
2024-05-09T11:23:54.239Z,26.08
2024-05-09T11:26:22.025Z,23.73
2024-05-09T11:28:54.703Z,22.46
2024-05-09T11:31:21.884Z,23.76
2024-05-09T11:33:51.930Z,24.71
2024-05-09T11:36:18.871Z,25.38
2024-05-09T11:38:48.373Z,23.78
2024-05-09T11:41:17.425Z,21.60
2024-05-09T11:43:47.048Z,21.99
2024-05-09T11:46:16.687Z,22.02
2024-05-09T11:48:46.490Z,21.99
2024-05-09T11:51:13.438Z,23.08
2024-05-09T11:53:42.885Z,23.41
2024-05-09T11:56:11.851Z,25.17
2024-05-09T11:58:41.600Z,27.08
2024-05-09T12:01:08.582Z,24.57
2024-05-09T12:03:41.032Z,25.64
2024-05-09T12:06:10.934Z,27.55
2024-05-09T12:08:38.382Z,25.19
2024-05-09T12:11:08.028Z,26.23
2024-05-09T12:13:35.002Z,26.69
2024-05-09T12:16:04.566Z,27.32
2024-05-09T12:18:33.798Z,28.00
2024-05-09T12:21:06.190Z,28.20
2024-05-09T12:23:33.087Z,29.78
2024-05-09T12:26:02.963Z,28.84
2024-05-09T12:28:29.935Z,28.26
2024-05-09T12:30:59.483Z,25.27
2024-05-09T12:33:26.464Z,24.46
2024-05-09T12:35:55.983Z,23.24
2024-05-09T12:38:25.435Z,26.55
2024-05-09T12:40:55.166Z,27.09
2024-05-09T12:43:22.284Z,27.68
2024-05-09T12:45:52.082Z,27.71
2024-05-09T12:48:19.168Z,25.30
2024-05-09T12:50:48.859Z,27.99
2024-05-09T12:53:15.908Z,28.09
2024-05-09T12:55:53.986Z,29.16
2024-05-09T12:58:26.620Z,29.13
2024-05-09T13:00:56.275Z,29.15
2024-05-09T13:03:23.390Z,25.07
2024-05-09T13:05:53.080Z,23.73
2024-05-09T13:08:20.265Z,22.75
2024-05-09T13:10:52.735Z,22.51
2024-05-09T13:13:19.847Z,22.34
2024-05-09T13:15:49.602Z,21.82
2024-05-09T13:18:16.699Z,24.26
2024-05-09T13:20:46.761Z,25.28
2024-05-09T13:23:13.734Z,25.89
2024-05-09T13:25:43.257Z,24.58
2024-05-09T13:28:12.830Z,23.87
2024-05-09T13:30:42.750Z,23.96
2024-05-09T13:33:11.439Z,23.84
2024-05-09T13:35:46.673Z,22.47
2024-05-09T13:38:16.754Z,24.54
2024-05-09T13:40:46.418Z,26.18
2024-05-09T13:43:17.173Z,25.33
2024-05-09T13:45:46.932Z,26.19
2024-05-09T13:48:14.263Z,27.67
2024-05-09T13:50:44.531Z,26.29
2024-05-09T13:53:11.755Z,23.67
2024-05-09T13:55:41.407Z,22.82
2024-05-09T13:58:09.337Z,23.17
2024-05-09T14:00:47.069Z,24.16
2024-05-09T14:03:18.024Z,25.12
2024-05-09T14:05:50.117Z,25.89
2024-05-09T14:08:19.684Z,25.19
2024-05-09T14:10:49.796Z,26.17
2024-05-09T14:13:17.284Z,26.24
2024-05-09T14:15:49.733Z,25.12
2024-05-09T14:18:16.872Z,23.54
2024-05-09T14:20:46.576Z,22.24
2024-05-09T14:23:14.229Z,22.18
2024-05-09T14:25:44.999Z,23.18
2024-05-09T14:28:13.432Z,24.51
2024-05-09T14:30:43.379Z,25.13
2024-05-09T14:33:12.942Z,24.64
2024-05-09T14:35:42.470Z,25.02
2024-05-09T14:38:10.054Z,24.29
2024-05-09T14:40:43.577Z,23.90
2024-05-09T14:43:11.517Z,24.42
2024-05-09T14:45:41.321Z,24.52
2024-05-09T14:48:09.333Z,25.27
2024-05-09T14:50:41.845Z,25.13
2024-05-09T14:53:10.490Z,24.79
2024-05-09T14:55:42.760Z,23.63
2024-05-09T14:58:11.431Z,23.81
2024-05-09T15:00:47.740Z,24.10
2024-05-09T15:03:17.268Z,24.34
2024-05-09T15:05:49.687Z,24.54
2024-05-09T15:08:17.829Z,24.76
2024-05-09T15:10:49.978Z,24.16
2024-05-09T15:13:17.589Z,24.90
2024-05-09T15:15:47.177Z,24.54
2024-05-09T15:18:14.692Z,24.60
2024-05-09T15:20:45.932Z,24.16
2024-05-09T15:23:16.001Z,23.92
2024-05-09T15:25:46.321Z,24.56
2024-05-09T15:28:13.326Z,24.12
2024-05-09T15:30:45.959Z,24.13
2024-05-09T15:33:13.778Z,23.55
2024-05-09T15:35:44.394Z,23.13
2024-05-09T15:38:11.414Z,23.23
2024-05-09T15:40:43.816Z,23.52
2024-05-09T15:43:11.678Z,23.76
2024-05-09T15:45:41.902Z,23.15
2024-05-09T15:48:10.559Z,23.32
2024-05-09T15:50:42.288Z,23.32
2024-05-09T15:53:11.134Z,23.61
2024-05-09T15:55:44.350Z,23.52
2024-05-09T15:58:12.276Z,23.30
2024-05-09T16:00:44.037Z,23.47
2024-05-09T16:03:14.339Z,23.28
2024-05-09T16:05:46.931Z,23.57
2024-05-09T16:08:15.582Z,23.66
2024-05-09T16:10:49.541Z,22.57
2024-05-09T16:13:17.514Z,22.95
2024-05-09T16:15:47.757Z,22.93
2024-05-09T16:18:15.083Z,23.10
2024-05-09T16:20:46.455Z,23.29
2024-05-09T16:23:15.467Z,23.04
2024-05-09T16:25:47.794Z,22.76
2024-05-09T16:28:18.957Z,22.29
2024-05-09T16:30:48.680Z,22.13
2024-05-09T16:33:19.056Z,21.78
2024-05-09T16:35:49.063Z,21.78
2024-05-09T16:38:16.172Z,21.57
2024-05-09T16:40:45.873Z,21.39
2024-05-09T16:43:13.562Z,21.48
2024-05-09T16:45:46.605Z,21.27
2024-05-09T16:48:14.162Z,21.21
2024-05-09T16:50:44.114Z,21.33
2024-05-09T16:53:11.236Z,20.90
2024-05-09T16:55:40.695Z,20.97
2024-05-09T16:58:08.344Z,21.27
2024-05-09T17:00:42.249Z,20.79
2024-05-09T17:03:15.200Z,20.66
2024-05-09T17:05:47.050Z,20.52
2024-05-09T17:08:16.665Z,20.40
2024-05-09T17:10:48.341Z,20.68
2024-05-09T17:13:18.537Z,20.54
2024-05-09T17:15:48.445Z,20.24
2024-05-09T17:18:21.059Z,20.41
2024-05-09T17:20:51.533Z,20.70
2024-05-09T17:23:18.513Z,20.57
2024-05-09T17:25:48.017Z,20.34
2024-05-09T17:28:15.120Z,20.11
2024-05-09T17:30:45.499Z,20.24
2024-05-09T17:33:13.253Z,19.85
2024-05-09T17:35:46.270Z,19.64
2024-05-09T17:38:13.291Z,19.49
2024-05-09T17:40:42.792Z,19.29
2024-05-09T17:43:10.759Z,19.27
2024-05-09T17:45:41.624Z,18.96
2024-05-09T17:48:10.950Z,19.02
2024-05-09T17:50:42.055Z,19.02
2024-05-09T17:53:11.855Z,18.75
2024-05-09T17:55:42.651Z,18.91
2024-05-09T17:58:10.378Z,18.70
2024-05-09T18:00:42.163Z,18.53
2024-05-09T18:03:12.051Z,18.43
2024-05-09T18:05:44.108Z,18.27
2024-05-09T18:08:14.583Z,18.18
2024-05-09T18:10:44.379Z,18.19
2024-05-09T18:13:12.762Z,18.17
2024-05-09T18:15:42.698Z,18.00
2024-05-09T18:18:11.657Z,17.93
2024-05-09T18:20:44.804Z,17.94
2024-05-09T18:23:17.996Z,17.84
2024-05-09T18:25:48.666Z,17.78
2024-05-09T18:28:16.455Z,17.59
2024-05-09T18:30:46.671Z,17.65
2024-05-09T18:33:14.057Z,17.40
2024-05-09T18:35:46.682Z,17.43
2024-05-09T18:38:16.297Z,17.35
2024-05-09T18:40:48.541Z,17.26
2024-05-09T18:43:16.779Z,17.16
2024-05-09T18:45:46.719Z,17.08
2024-05-09T18:48:13.807Z,16.95
2024-05-09T18:50:43.493Z,16.74
2024-05-09T18:53:12.236Z,16.54
2024-05-09T18:55:45.462Z,16.59
2024-05-09T18:58:12.606Z,16.35
2024-05-09T19:00:45.317Z,16.37
2024-05-09T19:03:14.933Z,16.21
2024-05-09T19:05:46.263Z,16.26
2024-05-09T19:08:14.489Z,16.27
2024-05-09T19:10:47.888Z,16.17
2024-05-09T19:13:15.290Z,16.08
2024-05-09T19:15:45.179Z,15.97
2024-05-09T19:18:12.874Z,15.89
2024-05-09T19:20:42.981Z,15.80
2024-05-09T19:23:11.476Z,15.79
2024-05-09T19:25:41.232Z,15.66
2024-05-09T19:28:10.926Z,15.78
2024-05-09T19:30:42.442Z,15.68
2024-05-09T19:33:12.270Z,15.36
2024-05-09T19:35:43.111Z,15.40
2024-05-09T19:38:10.570Z,15.50
2024-05-09T19:40:40.232Z,15.41
2024-05-09T19:43:07.481Z,15.39
2024-05-09T19:45:39.767Z,15.08
2024-05-09T19:48:07.867Z,15.04
2024-05-09T19:50:42.856Z,14.71
2024-05-09T19:53:12.206Z,14.97
2024-05-09T19:55:41.936Z,14.98
2024-05-09T19:58:09.487Z,14.74
2024-05-09T20:00:43.528Z,14.52
2024-05-09T20:03:15.200Z,14.55
2024-05-09T20:05:44.689Z,14.32
2024-05-09T20:08:14.508Z,14.41
2024-05-09T20:10:41.478Z,14.01
2024-05-09T20:13:11.107Z,14.28
2024-05-09T20:15:40.708Z,14.27
2024-05-09T20:18:10.313Z,14.18
2024-05-09T20:20:41.326Z,13.88
2024-05-09T20:23:13.399Z,13.85
2024-05-09T20:25:40.449Z,14.12
2024-05-09T20:28:10.529Z,14.03
2024-05-09T20:30:40.452Z,13.81
2024-05-09T20:33:10.556Z,13.32
2024-05-09T20:35:37.766Z,13.78
2024-05-09T20:38:07.642Z,13.37
2024-05-09T20:40:37.809Z,13.67
2024-05-09T20:43:09.900Z,13.52
2024-05-09T20:45:37.370Z,13.43
2024-05-09T20:48:11.400Z,13.52
2024-05-09T20:50:41.391Z,13.14
2024-05-09T20:53:14.460Z,13.25
2024-05-09T20:55:42.162Z,13.27
2024-05-09T20:58:12.192Z,12.96
2024-05-09T21:00:42.877Z,13.16
2024-05-09T21:03:18.026Z,13.05
2024-05-09T21:05:45.712Z,12.96
2024-05-09T21:08:15.541Z,12.96
2024-05-09T21:10:42.523Z,12.45
2024-05-09T21:13:12.083Z,12.67
2024-05-09T21:15:39.059Z,12.45
2024-05-09T21:18:08.691Z,12.67
2024-05-09T21:20:38.378Z,12.83
2024-05-09T21:23:08.136Z,12.52
2024-05-09T21:25:35.038Z,12.35
2024-05-09T21:28:04.832Z,12.46
2024-05-09T21:30:40.408Z,12.42
2024-05-09T21:33:14.063Z,12.36
2024-05-09T21:35:44.999Z,12.35
2024-05-09T21:38:16.155Z,12.13
2024-05-09T21:40:43.694Z,12.15
2024-05-09T21:43:14.291Z,12.06
2024-05-09T21:45:41.564Z,12.22
2024-05-09T21:48:11.867Z,12.07
2024-05-09T21:50:41.494Z,12.03
2024-05-09T21:53:14.682Z,11.93
2024-05-09T21:55:41.697Z,11.86
2024-05-09T21:58:11.376Z,11.86
2024-05-09T22:00:40.085Z,11.99
2024-05-09T22:03:11.310Z,11.81
2024-05-09T22:05:41.921Z,11.83
2024-05-09T22:08:14.426Z,11.58
2024-05-09T22:10:41.629Z,11.46
2024-05-09T22:13:11.295Z,11.65
2024-05-09T22:15:40.455Z,11.48
2024-05-09T22:18:11.601Z,11.59
2024-05-09T22:20:44.642Z,11.43
2024-05-09T22:23:18.199Z,11.28
2024-05-09T22:25:45.124Z,11.28
2024-05-09T22:28:17.216Z,11.21
2024-05-09T22:30:46.002Z,11.15
2024-05-09T22:33:16.227Z,11.19
2024-05-09T22:35:43.345Z,11.25
2024-05-09T22:38:12.858Z,11.12
2024-05-09T22:40:47.842Z,11.15
2024-05-09T22:43:23.148Z,11.16
2024-05-09T22:45:51.944Z,10.60
2024-05-09T22:48:23.389Z,10.92
2024-05-09T22:50:50.601Z,10.99
2024-05-09T22:53:21.148Z,10.67
2024-05-09T22:55:50.663Z,10.85
2024-05-09T22:58:20.794Z,10.76
2024-05-09T23:00:47.930Z,10.56
2024-05-09T23:03:21.225Z,10.62
2024-05-09T23:05:48.629Z,10.66
2024-05-09T23:08:18.123Z,10.59
2024-05-09T23:10:45.036Z,10.61
2024-05-09T23:13:17.230Z,10.18
2024-05-09T23:15:44.173Z,10.35
2024-05-09T23:18:13.759Z,9.90
2024-05-09T23:20:40.893Z,10.25
2024-05-09T23:23:11.909Z,10.30
2024-05-09T23:25:41.428Z,10.02
2024-05-09T23:28:11.412Z,10.23
2024-05-09T23:30:42.115Z,10.24
2024-05-09T23:33:14.087Z,10.23
2024-05-09T23:35:43.533Z,10.22
2024-05-09T23:38:13.460Z,10.14
2024-05-09T23:40:41.964Z,10.15
2024-05-09T23:43:13.299Z,10.12
2024-05-09T23:45:43.457Z,10.17
2024-05-09T23:48:13.360Z,10.05
2024-05-09T23:50:41.164Z,10.07
2024-05-09T23:53:11.421Z,9.89
2024-05-09T23:55:39.185Z,9.83
2024-05-09T23:58:09.533Z,9.86
